sensor_id;sensor_type;location;lat;lon;timestamp;P1;durP1;ratioP1;P2;durP2;ratioP2
44102;SDS011;29769;42.178;24.742;2023-12-20T00:00:10;3.22;;;2.22;;
44102;SDS011;29769;42.178;24.742;2023-12-20T00:02:56;1.75;;;1.65;;
44102;SDS011;29769;42.178;24.742;2023-12-20T00:05:40;2.22;;;1.63;;
44102;SDS011;29769;42.178;24.742;2023-12-20T00:08:25;2.17;;;2.08;;
44102;SDS011;29769;42.178;24.742;2023-12-20T00:11:10;0.70;;;0.68;;
44102;SDS011;29769;42.178;24.742;2023-12-20T00:13:55;2.03;;;1.92;;
44102;SDS011;29769;42.178;24.742;2023-12-20T00:16:40;3.78;;;2.30;;
44102;SDS011;29769;42.178;24.742;2023-12-20T00:19:25;2.28;;;1.98;;
44102;SDS011;29769;42.178;24.742;2023-12-20T00:22:10;1.27;;;1.23;;
44102;SDS011;29769;42.178;24.742;2023-12-20T00:24:55;8.15;;;2.90;;
44102;SDS011;29769;42.178;24.742;2023-12-20T00:27:40;3.08;;;2.13;;
44102;SDS011;29769;42.178;24.742;2023-12-20T00:30:25;1.13;;;1.13;;
44102;SDS011;29769;42.178;24.742;2023-12-20T00:33:10;1.25;;;0.85;;
44102;SDS011;29769;42.178;24.742;2023-12-20T00:35:55;1.95;;;1.85;;
44102;SDS011;29769;42.178;24.742;2023-12-20T00:38:40;4.10;;;1.70;;
44102;SDS011;29769;42.178;24.742;2023-12-20T00:41:25;21.90;;;2.08;;
44102;SDS011;29769;42.178;24.742;2023-12-20T00:44:10;2.15;;;2.05;;
44102;SDS011;29769;42.178;24.742;2023-12-20T00:46:55;0.73;;;0.73;;
44102;SDS011;29769;42.178;24.742;2023-12-20T00:49:40;0.75;;;0.75;;
44102;SDS011;29769;42.178;24.742;2023-12-20T00:52:25;2.55;;;2.38;;
44102;SDS011;29769;42.178;24.742;2023-12-20T00:55:10;2.88;;;1.42;;
44102;SDS011;29769;42.178;24.742;2023-12-20T00:57:55;1.85;;;1.75;;
44102;SDS011;29769;42.178;24.742;2023-12-20T01:00:40;0.57;;;0.57;;
44102;SDS011;29769;42.178;24.742;2023-12-20T01:03:26;0.93;;;0.93;;
44102;SDS011;29769;42.178;24.742;2023-12-20T01:06:11;1.35;;;1.25;;
44102;SDS011;29769;42.178;24.742;2023-12-20T01:08:56;2.55;;;2.10;;
44102;SDS011;29769;42.178;24.742;2023-12-20T01:11:40;1.33;;;1.23;;
44102;SDS011;29769;42.178;24.742;2023-12-20T01:14:25;0.45;;;0.45;;
44102;SDS011;29769;42.178;24.742;2023-12-20T01:17:10;1.50;;;1.40;;
44102;SDS011;29769;42.178;24.742;2023-12-20T01:19:55;2.13;;;1.65;;
44102;SDS011;29769;42.178;24.742;2023-12-20T01:22:40;0.85;;;0.85;;
44102;SDS011;29769;42.178;24.742;2023-12-20T01:25:27;2.92;;;2.53;;
44102;SDS011;29769;42.178;24.742;2023-12-20T01:28:12;0.10;;;0.10;;
44102;SDS011;29769;42.178;24.742;2023-12-20T01:30:57;0.45;;;0.45;;
44102;SDS011;29769;42.178;24.742;2023-12-20T01:33:42;0.90;;;0.90;;
44102;SDS011;29769;42.178;24.742;2023-12-20T01:36:27;0.30;;;0.30;;
44102;SDS011;29769;42.178;24.742;2023-12-20T01:39:12;0.77;;;0.75;;
44102;SDS011;29769;42.178;24.742;2023-12-20T01:41:57;1.58;;;1.38;;
44102;SDS011;29769;42.178;24.742;2023-12-20T01:44:42;2.38;;;2.17;;
44102;SDS011;29769;42.178;24.742;2023-12-20T01:47:27;1.05;;;1.05;;
44102;SDS011;29769;42.178;24.742;2023-12-20T01:50:13;0.75;;;0.75;;
44102;SDS011;29769;42.178;24.742;2023-12-20T01:52:58;3.60;;;3.28;;
44102;SDS011;29769;42.178;24.742;2023-12-20T01:55:45;3.40;;;1.88;;
44102;SDS011;29769;42.178;24.742;2023-12-20T01:58:32;1.13;;;0.93;;
44102;SDS011;29769;42.178;24.742;2023-12-20T02:01:17;1.65;;;1.52;;
44102;SDS011;29769;42.178;24.742;2023-12-20T02:04:03;1.55;;;1.48;;
44102;SDS011;29769;42.178;24.742;2023-12-20T02:06:48;0.25;;;0.25;;
44102;SDS011;29769;42.178;24.742;2023-12-20T02:09:36;0.55;;;0.47;;
44102;SDS011;29769;42.178;24.742;2023-12-20T02:12:22;1.58;;;1.52;;
44102;SDS011;29769;42.178;24.742;2023-12-20T02:15:07;1.90;;;1.80;;
44102;SDS011;29769;42.178;24.742;2023-12-20T02:17:52;0.90;;;0.90;;
44102;SDS011;29769;42.178;24.742;2023-12-20T02:20:38;1.33;;;1.30;;
44102;SDS011;29769;42.178;24.742;2023-12-20T02:23:22;0.60;;;0.60;;
44102;SDS011;29769;42.178;24.742;2023-12-20T02:26:07;0.75;;;0.60;;
44102;SDS011;29769;42.178;24.742;2023-12-20T02:28:53;1.33;;;0.45;;
44102;SDS011;29769;42.178;24.742;2023-12-20T02:31:38;0.45;;;0.45;;
44102;SDS011;29769;42.178;24.742;2023-12-20T02:34:24;1.27;;;1.23;;
44102;SDS011;29769;42.178;24.742;2023-12-20T02:37:08;2.63;;;0.98;;
44102;SDS011;29769;42.178;24.742;2023-12-20T02:39:54;5.03;;;2.33;;
44102;SDS011;29769;42.178;24.742;2023-12-20T02:42:39;4.35;;;3.95;;
44102;SDS011;29769;42.178;24.742;2023-12-20T02:45:24;0.73;;;0.73;;
44102;SDS011;29769;42.178;24.742;2023-12-20T02:48:09;0.57;;;0.57;;
44102;SDS011;29769;42.178;24.742;2023-12-20T02:50:55;1.05;;;1.05;;
44102;SDS011;29769;42.178;24.742;2023-12-20T02:53:39;2.08;;;1.30;;
44102;SDS011;29769;42.178;24.742;2023-12-20T02:56:25;1.08;;;0.82;;
44102;SDS011;29769;42.178;24.742;2023-12-20T02:59:10;0.40;;;0.40;;
44102;SDS011;29769;42.178;24.742;2023-12-20T03:01:55;1.10;;;1.10;;
44102;SDS011;29769;42.178;24.742;2023-12-20T03:04:40;0.47;;;0.47;;
44102;SDS011;29769;42.178;24.742;2023-12-20T03:07:25;0.73;;;0.73;;
44102;SDS011;29769;42.178;24.742;2023-12-20T03:10:10;1.10;;;1.10;;
44102;SDS011;29769;42.178;24.742;2023-12-20T03:12:55;1.23;;;1.15;;
44102;SDS011;29769;42.178;24.742;2023-12-20T03:15:40;0.10;;;0.10;;
44102;SDS011;29769;42.178;24.742;2023-12-20T03:18:25;0.75;;;0.68;;
44102;SDS011;29769;42.178;24.742;2023-12-20T03:21:12;3.17;;;2.25;;
44102;SDS011;29769;42.178;24.742;2023-12-20T03:23:57;0.40;;;0.40;;
44102;SDS011;29769;42.178;24.742;2023-12-20T03:26:42;1.77;;;1.67;;
44102;SDS011;29769;42.178;24.742;2023-12-20T03:29:27;0.47;;;0.47;;
44102;SDS011;29769;42.178;24.742;2023-12-20T03:32:12;0.38;;;0.38;;
44102;SDS011;29769;42.178;24.742;2023-12-20T03:34:57;15.35;;;1.08;;
44102;SDS011;29769;42.178;24.742;2023-12-20T03:37:42;0.77;;;0.77;;
44102;SDS011;29769;42.178;24.742;2023-12-20T03:40:28;0.80;;;0.80;;
44102;SDS011;29769;42.178;24.742;2023-12-20T03:43:13;0.15;;;0.15;;
44102;SDS011;29769;42.178;24.742;2023-12-20T03:45:57;3.00;;;1.45;;
44102;SDS011;29769;42.178;24.742;2023-12-20T03:48:43;0.70;;;0.65;;
44102;SDS011;29769;42.178;24.742;2023-12-20T03:51:28;5.15;;;1.75;;
44102;SDS011;29769;42.178;24.742;2023-12-20T03:54:13;0.82;;;0.82;;
44102;SDS011;29769;42.178;24.742;2023-12-20T03:56:58;0.70;;;0.70;;
44102;SDS011;29769;42.178;24.742;2023-12-20T03:59:43;0.80;;;0.80;;
44102;SDS011;29769;42.178;24.742;2023-12-20T04:02:28;0.82;;;0.80;;
44102;SDS011;29769;42.178;24.742;2023-12-20T04:05:13;1.45;;;1.35;;
44102;SDS011;29769;42.178;24.742;2023-12-20T04:07:59;1.98;;;1.83;;
44102;SDS011;29769;42.178;24.742;2023-12-20T04:10:45;2.60;;;2.40;;
44102;SDS011;29769;42.178;24.742;2023-12-20T04:13:31;2.85;;;2.10;;
44102;SDS011;29769;42.178;24.742;2023-12-20T04:16:16;1.05;;;1.02;;
44102;SDS011;29769;42.178;24.742;2023-12-20T04:19:00;3.20;;;2.08;;
44102;SDS011;29769;42.178;24.742;2023-12-20T04:21:45;1.88;;;1.38;;
44102;SDS011;29769;42.178;24.742;2023-12-20T04:24:30;0.15;;;0.15;;
44102;SDS011;29769;42.178;24.742;2023-12-20T04:27:15;0.73;;;0.73;;
44102;SDS011;29769;42.178;24.742;2023-12-20T04:30:01;3.42;;;1.85;;
44102;SDS011;29769;42.178;24.742;2023-12-20T04:32:46;1.65;;;1.55;;
44102;SDS011;29769;42.178;24.742;2023-12-20T04:35:30;1.55;;;1.45;;
44102;SDS011;29769;42.178;24.742;2023-12-20T04:38:15;1.52;;;1.15;;
44102;SDS011;29769;42.178;24.742;2023-12-20T04:41:00;0.45;;;0.45;;
44102;SDS011;29769;42.178;24.742;2023-12-20T04:43:45;8.70;;;1.00;;
44102;SDS011;29769;42.178;24.742;2023-12-20T04:46:30;2.13;;;1.00;;
44102;SDS011;29769;42.178;24.742;2023-12-20T04:49:15;0.70;;;0.32;;
44102;SDS011;29769;42.178;24.742;2023-12-20T04:52:00;1.63;;;1.52;;
44102;SDS011;29769;42.178;24.742;2023-12-20T04:54:45;0.50;;;0.50;;
44102;SDS011;29769;42.178;24.742;2023-12-20T04:57:30;1.48;;;1.38;;
44102;SDS011;29769;42.178;24.742;2023-12-20T05:00:16;0.80;;;0.80;;
44102;SDS011;29769;42.178;24.742;2023-12-20T05:03:00;4.50;;;0.60;;
44102;SDS011;29769;42.178;24.742;2023-12-20T05:05:45;1.05;;;0.95;;
44102;SDS011;29769;42.178;24.742;2023-12-20T05:08:30;3.45;;;2.33;;
44102;SDS011;29769;42.178;24.742;2023-12-20T05:11:15;0.95;;;0.95;;
44102;SDS011;29769;42.178;24.742;2023-12-20T05:14:01;1.48;;;1.38;;
44102;SDS011;29769;42.178;24.742;2023-12-20T05:16:46;1.15;;;1.08;;
44102;SDS011;29769;42.178;24.742;2023-12-20T05:19:31;0.73;;;0.73;;
44102;SDS011;29769;42.178;24.742;2023-12-20T05:22:19;0.55;;;0.55;;
44102;SDS011;29769;42.178;24.742;2023-12-20T05:25:04;1.30;;;1.27;;
44102;SDS011;29769;42.178;24.742;2023-12-20T05:27:50;0.88;;;0.88;;
44102;SDS011;29769;42.178;24.742;2023-12-20T05:30:34;0.73;;;0.73;;
44102;SDS011;29769;42.178;24.742;2023-12-20T05:33:20;0.38;;;0.38;;
44102;SDS011;29769;42.178;24.742;2023-12-20T05:36:05;0.25;;;0.25;;
44102;SDS011;29769;42.178;24.742;2023-12-20T05:38:50;0.20;;;0.20;;
44102;SDS011;29769;42.178;24.742;2023-12-20T05:41:35;0.85;;;0.85;;
44102;SDS011;29769;42.178;24.742;2023-12-20T05:44:20;0.77;;;0.77;;
44102;SDS011;29769;42.178;24.742;2023-12-20T05:47:05;2.05;;;1.45;;
44102;SDS011;29769;42.178;24.742;2023-12-20T05:49:50;1.13;;;0.65;;
44102;SDS011;29769;42.178;24.742;2023-12-20T05:52:35;1.08;;;1.08;;
44102;SDS011;29769;42.178;24.742;2023-12-20T05:55:20;0.20;;;0.20;;
44102;SDS011;29769;42.178;24.742;2023-12-20T05:58:05;1.05;;;1.05;;
44102;SDS011;29769;42.178;24.742;2023-12-20T06:00:50;0.95;;;0.95;;
44102;SDS011;29769;42.178;24.742;2023-12-20T06:03:35;1.30;;;0.82;;
44102;SDS011;29769;42.178;24.742;2023-12-20T06:06:20;1.70;;;1.60;;
44102;SDS011;29769;42.178;24.742;2023-12-20T06:09:05;1.27;;;1.20;;
44102;SDS011;29769;42.178;24.742;2023-12-20T06:11:50;1.15;;;1.15;;
44102;SDS011;29769;42.178;24.742;2023-12-20T06:14:35;1.55;;;1.27;;
44102;SDS011;29769;42.178;24.742;2023-12-20T06:17:20;0.50;;;0.50;;
44102;SDS011;29769;42.178;24.742;2023-12-20T06:20:07;1.77;;;1.67;;
44102;SDS011;29769;42.178;24.742;2023-12-20T06:22:52;0.52;;;0.52;;
44102;SDS011;29769;42.178;24.742;2023-12-20T06:25:37;1.90;;;1.30;;
44102;SDS011;29769;42.178;24.742;2023-12-20T06:28:22;3.42;;;3.15;;
44102;SDS011;29769;42.178;24.742;2023-12-20T06:31:07;2.63;;;2.53;;
44102;SDS011;29769;42.178;24.742;2023-12-20T06:33:53;1.90;;;1.80;;
44102;SDS011;29769;42.178;24.742;2023-12-20T06:36:41;2.70;;;2.50;;
44102;SDS011;29769;42.178;24.742;2023-12-20T06:39:26;1.70;;;1.60;;
44102;SDS011;29769;42.178;24.742;2023-12-20T06:42:12;4.18;;;3.80;;
44102;SDS011;29769;42.178;24.742;2023-12-20T06:44:58;3.17;;;2.55;;
44102;SDS011;29769;42.178;24.742;2023-12-20T06:47:43;2.67;;;2.58;;
44102;SDS011;29769;42.178;24.742;2023-12-20T06:50:28;3.78;;;3.58;;
44102;SDS011;29769;42.178;24.742;2023-12-20T06:53:13;4.80;;;4.38;;
44102;SDS011;29769;42.178;24.742;2023-12-20T06:55:58;4.43;;;2.88;;
44102;SDS011;29769;42.178;24.742;2023-12-20T06:58:43;1.08;;;1.08;;
44102;SDS011;29769;42.178;24.742;2023-12-20T07:01:28;1.98;;;1.90;;
44102;SDS011;29769;42.178;24.742;2023-12-20T07:04:13;1.45;;;1.35;;
44102;SDS011;29769;42.178;24.742;2023-12-20T07:06:58;2.78;;;2.22;;
44102;SDS011;29769;42.178;24.742;2023-12-20T07:09:44;1.52;;;1.42;;
44102;SDS011;29769;42.178;24.742;2023-12-20T07:12:29;2.67;;;2.10;;
44102;SDS011;29769;42.178;24.742;2023-12-20T07:15:14;8.57;;;2.22;;
44102;SDS011;29769;42.178;24.742;2023-12-20T07:18:00;1.70;;;1.60;;
44102;SDS011;29769;42.178;24.742;2023-12-20T07:20:45;1.35;;;1.25;;
44102;SDS011;29769;42.178;24.742;2023-12-20T07:23:30;2.13;;;2.00;;
44102;SDS011;29769;42.178;24.742;2023-12-20T07:26:15;1.23;;;1.17;;
44102;SDS011;29769;42.178;24.742;2023-12-20T07:31:44;1.65;;;1.58;;
44102;SDS011;29769;42.178;24.742;2023-12-20T07:34:29;1.83;;;1.73;;
44102;SDS011;29769;42.178;24.742;2023-12-20T07:37:15;0.68;;;0.68;;
44102;SDS011;29769;42.178;24.742;2023-12-20T07:39:59;1.95;;;1.52;;
44102;SDS011;29769;42.178;24.742;2023-12-20T07:42:44;2.45;;;1.40;;
44102;SDS011;29769;42.178;24.742;2023-12-20T07:45:29;3.33;;;2.17;;
44102;SDS011;29769;42.178;24.742;2023-12-20T07:48:14;2.97;;;2.15;;
44102;SDS011;29769;42.178;24.742;2023-12-20T07:50:59;0.77;;;0.77;;
44102;SDS011;29769;42.178;24.742;2023-12-20T07:56:29;2.90;;;2.53;;
44102;SDS011;29769;42.178;24.742;2023-12-20T07:59:14;4.13;;;3.83;;
44102;SDS011;29769;42.178;24.742;2023-12-20T08:04:43;8.48;;;3.70;;
44102;SDS011;29769;42.178;24.742;2023-12-20T08:10:13;6.75;;;3.50;;
44102;SDS011;29769;42.178;24.742;2023-12-20T08:15:42;2.15;;;1.75;;
44102;SDS011;29769;42.178;24.742;2023-12-20T08:18:27;4.90;;;3.15;;
44102;SDS011;29769;42.178;24.742;2023-12-20T08:23:57;2.58;;;2.38;;
44102;SDS011;29769;42.178;24.742;2023-12-20T08:26:42;2.00;;;1.90;;
44102;SDS011;29769;42.178;24.742;2023-12-20T08:29:27;8.73;;;2.38;;
44102;SDS011;29769;42.178;24.742;2023-12-20T08:32:12;1.63;;;1.52;;
44102;SDS011;29769;42.178;24.742;2023-12-20T08:34:57;1.63;;;1.50;;
44102;SDS011;29769;42.178;24.742;2023-12-20T08:37:42;0.90;;;0.90;;
44102;SDS011;29769;42.178;24.742;2023-12-20T08:40:27;1.98;;;1.67;;
44102;SDS011;29769;42.178;24.742;2023-12-20T08:43:12;3.50;;;2.50;;
44102;SDS011;29769;42.178;24.742;2023-12-20T08:45:57;17.00;;;3.72;;
44102;SDS011;29769;42.178;24.742;2023-12-20T08:48:42;3.58;;;1.90;;
44102;SDS011;29769;42.178;24.742;2023-12-20T08:51:27;9.63;;;3.55;;
44102;SDS011;29769;42.178;24.742;2023-12-20T08:54:12;3.42;;;2.17;;
44102;SDS011;29769;42.178;24.742;2023-12-20T08:56:57;11.27;;;3.47;;
44102;SDS011;29769;42.178;24.742;2023-12-20T08:59:42;2.97;;;2.58;;
44102;SDS011;29769;42.178;24.742;2023-12-20T09:02:27;2.15;;;1.95;;
44102;SDS011;29769;42.178;24.742;2023-12-20T09:05:13;10.45;;;3.45;;
44102;SDS011;29769;42.178;24.742;2023-12-20T09:07:58;3.35;;;2.63;;
44102;SDS011;29769;42.178;24.742;2023-12-20T09:10:43;6.65;;;1.90;;
44102;SDS011;29769;42.178;24.742;2023-12-20T09:13:29;5.75;;;3.85;;
44102;SDS011;29769;42.178;24.742;2023-12-20T09:16:14;2.65;;;2.45;;
44102;SDS011;29769;42.178;24.742;2023-12-20T09:19:00;3.42;;;1.98;;
44102;SDS011;29769;42.178;24.742;2023-12-20T09:21:45;32.22;;;4.85;;
44102;SDS011;29769;42.178;24.742;2023-12-20T09:24:30;2.22;;;2.03;;
44102;SDS011;29769;42.178;24.742;2023-12-20T09:27:14;2.92;;;2.55;;
44102;SDS011;29769;42.178;24.742;2023-12-20T09:30:00;6.05;;;2.80;;
44102;SDS011;29769;42.178;24.742;2023-12-20T09:32:45;4.20;;;2.67;;
44102;SDS011;29769;42.178;24.742;2023-12-20T09:35:30;13.80;;;5.13;;
44102;SDS011;29769;42.178;24.742;2023-12-20T09:38:15;3.83;;;3.50;;
44102;SDS011;29769;42.178;24.742;2023-12-20T09:41:01;5.20;;;3.60;;
44102;SDS011;29769;42.178;24.742;2023-12-20T09:43:48;9.50;;;4.18;;
44102;SDS011;29769;42.178;24.742;2023-12-20T09:46:35;3.22;;;2.55;;
44102;SDS011;29769;42.178;24.742;2023-12-20T09:49:25;10.55;;;4.32;;
44102;SDS011;29769;42.178;24.742;2023-12-20T09:52:12;5.10;;;3.65;;
44102;SDS011;29769;42.178;24.742;2023-12-20T09:54:58;5.80;;;3.67;;
44102;SDS011;29769;42.178;24.742;2023-12-20T09:57:46;7.90;;;5.07;;
44102;SDS011;29769;42.178;24.742;2023-12-20T10:00:31;7.65;;;3.95;;
44102;SDS011;29769;42.178;24.742;2023-12-20T10:03:16;3.97;;;3.58;;
44102;SDS011;29769;42.178;24.742;2023-12-20T10:06:04;8.55;;;3.50;;
44102;SDS011;29769;42.178;24.742;2023-12-20T10:08:49;3.50;;;2.55;;
44102;SDS011;29769;42.178;24.742;2023-12-20T10:11:35;11.77;;;3.17;;
44102;SDS011;29769;42.178;24.742;2023-12-20T10:14:21;6.60;;;3.15;;
44102;SDS011;29769;42.178;24.742;2023-12-20T10:17:07;2.20;;;1.88;;
44102;SDS011;29769;42.178;24.742;2023-12-20T10:19:52;5.93;;;3.47;;
44102;SDS011;29769;42.178;24.742;2023-12-20T10:22:37;3.85;;;3.40;;
44102;SDS011;29769;42.178;24.742;2023-12-20T10:25:22;5.47;;;4.18;;
44102;SDS011;29769;42.178;24.742;2023-12-20T10:28:14;7.22;;;3.50;;
44102;SDS011;29769;42.178;24.742;2023-12-20T10:31:03;5.68;;;3.05;;
44102;SDS011;29769;42.178;24.742;2023-12-20T10:33:48;10.02;;;3.35;;
44102;SDS011;29769;42.178;24.742;2023-12-20T10:36:33;3.58;;;2.45;;
44102;SDS011;29769;42.178;24.742;2023-12-20T10:39:19;6.93;;;3.55;;
44102;SDS011;29769;42.178;24.742;2023-12-20T10:42:04;6.45;;;3.55;;
44102;SDS011;29769;42.178;24.742;2023-12-20T10:44:50;7.50;;;3.17;;
44102;SDS011;29769;42.178;24.742;2023-12-20T10:47:35;5.18;;;3.22;;
44102;SDS011;29769;42.178;24.742;2023-12-20T10:50:21;3.10;;;2.80;;
44102;SDS011;29769;42.178;24.742;2023-12-20T10:53:06;5.65;;;2.78;;
44102;SDS011;29769;42.178;24.742;2023-12-20T10:55:52;3.47;;;2.42;;
44102;SDS011;29769;42.178;24.742;2023-12-20T10:58:41;9.52;;;4.47;;
44102;SDS011;29769;42.178;24.742;2023-12-20T11:01:29;3.65;;;3.38;;
44102;SDS011;29769;42.178;24.742;2023-12-20T11:04:15;8.35;;;5.22;;
44102;SDS011;29769;42.178;24.742;2023-12-20T11:07:16;8.85;;;3.45;;
44102;SDS011;29769;42.178;24.742;2023-12-20T11:10:23;3.78;;;2.80;;
44102;SDS011;29769;42.178;24.742;2023-12-20T11:13:57;2.25;;;2.05;;
44102;SDS011;29769;42.178;24.742;2023-12-20T11:16:25;10.05;;;4.15;;
44102;SDS011;29769;42.178;24.742;2023-12-20T11:19:10;5.15;;;3.47;;
44102;SDS011;29769;42.178;24.742;2023-12-20T11:21:56;11.32;;;4.78;;
44102;SDS011;29769;42.178;24.742;2023-12-20T11:24:44;6.78;;;2.80;;
44102;SDS011;29769;42.178;24.742;2023-12-20T11:27:30;2.70;;;2.50;;
44102;SDS011;29769;42.178;24.742;2023-12-20T11:30:16;5.25;;;3.08;;
44102;SDS011;29769;42.178;24.742;2023-12-20T11:33:01;4.72;;;3.58;;
44102;SDS011;29769;42.178;24.742;2023-12-20T11:35:46;11.05;;;3.55;;
44102;SDS011;29769;42.178;24.742;2023-12-20T11:38:38;6.97;;;3.72;;
44102;SDS011;29769;42.178;24.742;2023-12-20T11:41:23;5.85;;;3.85;;
44102;SDS011;29769;42.178;24.742;2023-12-20T11:44:12;6.40;;;3.83;;
44102;SDS011;29769;42.178;24.742;2023-12-20T11:46:56;5.00;;;3.45;;
44102;SDS011;29769;42.178;24.742;2023-12-20T11:49:42;5.00;;;3.45;;
44102;SDS011;29769;42.178;24.742;2023-12-20T11:52:27;5.53;;;3.38;;
44102;SDS011;29769;42.178;24.742;2023-12-20T11:55:12;11.60;;;3.45;;
44102;SDS011;29769;42.178;24.742;2023-12-20T11:57:57;4.32;;;3.92;;
44102;SDS011;29769;42.178;24.742;2023-12-20T12:00:42;6.88;;;3.33;;
44102;SDS011;29769;42.178;24.742;2023-12-20T12:03:27;5.00;;;3.83;;
44102;SDS011;29769;42.178;24.742;2023-12-20T12:06:12;3.45;;;3.15;;
44102;SDS011;29769;42.178;24.742;2023-12-20T12:08:58;4.88;;;3.22;;
44102;SDS011;29769;42.178;24.742;2023-12-20T12:11:43;8.13;;;5.32;;
44102;SDS011;29769;42.178;24.742;2023-12-20T12:14:28;3.40;;;3.10;;
44102;SDS011;29769;42.178;24.742;2023-12-20T12:17:13;7.22;;;3.38;;
44102;SDS011;29769;42.178;24.742;2023-12-20T12:20:02;5.32;;;3.08;;
44102;SDS011;29769;42.178;24.742;2023-12-20T12:23:00;6.35;;;4.32;;
44102;SDS011;29769;42.178;24.742;2023-12-20T12:25:48;4.80;;;3.05;;
44102;SDS011;29769;42.178;24.742;2023-12-20T12:28:34;5.97;;;3.97;;
44102;SDS011;29769;42.178;24.742;2023-12-20T12:31:19;13.45;;;4.07;;
44102;SDS011;29769;42.178;24.742;2023-12-20T12:34:05;5.72;;;3.60;;
44102;SDS011;29769;42.178;24.742;2023-12-20T12:36:51;3.03;;;2.83;;
44102;SDS011;29769;42.178;24.742;2023-12-20T12:39:36;5.10;;;3.95;;
44102;SDS011;29769;42.178;24.742;2023-12-20T12:42:22;4.97;;;3.50;;
44102;SDS011;29769;42.178;24.742;2023-12-20T12:45:10;13.00;;;5.57;;
44102;SDS011;29769;42.178;24.742;2023-12-20T12:47:59;10.98;;;5.88;;
44102;SDS011;29769;42.178;24.742;2023-12-20T12:53:30;6.18;;;3.90;;
44102;SDS011;29769;42.178;24.742;2023-12-20T12:59:00;7.90;;;4.95;;
44102;SDS011;29769;42.178;24.742;2023-12-20T13:01:45;6.25;;;4.97;;
44102;SDS011;29769;42.178;24.742;2023-12-20T13:04:30;10.55;;;4.63;;
44102;SDS011;29769;42.178;24.742;2023-12-20T13:07:16;7.53;;;5.38;;
44102;SDS011;29769;42.178;24.742;2023-12-20T13:10:01;9.88;;;6.00;;
44102;SDS011;29769;42.178;24.742;2023-12-20T13:15:30;11.27;;;6.32;;
44102;SDS011;29769;42.178;24.742;2023-12-20T13:21:00;8.30;;;4.63;;
44102;SDS011;29769;42.178;24.742;2023-12-20T13:23:45;12.55;;;5.95;;
44102;SDS011;29769;42.178;24.742;2023-12-20T13:26:30;37.03;;;9.15;;
44102;SDS011;29769;42.178;24.742;2023-12-20T13:32:00;9.30;;;4.82;;
44102;SDS011;29769;42.178;24.742;2023-12-20T13:34:45;13.45;;;5.43;;
44102;SDS011;29769;42.178;24.742;2023-12-20T13:37:31;6.35;;;5.75;;
44102;SDS011;29769;42.178;24.742;2023-12-20T13:40:16;5.10;;;3.90;;
44102;SDS011;29769;42.178;24.742;2023-12-20T13:48:32;6.60;;;4.13;;
44102;SDS011;29769;42.178;24.742;2023-12-20T13:54:02;4.60;;;4.18;;
44102;SDS011;29769;42.178;24.742;2023-12-20T13:56:47;10.38;;;6.18;;
44102;SDS011;29769;42.178;24.742;2023-12-20T13:59:33;12.80;;;5.40;;
44102;SDS011;29769;42.178;24.742;2023-12-20T14:02:17;11.07;;;5.72;;
44102;SDS011;29769;42.178;24.742;2023-12-20T14:05:02;8.45;;;5.88;;
44102;SDS011;29769;42.178;24.742;2023-12-20T14:10:32;3.83;;;3.50;;
44102;SDS011;29769;42.178;24.742;2023-12-20T14:16:02;3.80;;;3.35;;
44102;SDS011;29769;42.178;24.742;2023-12-20T14:18:48;4.97;;;3.50;;
44102;SDS011;29769;42.178;24.742;2023-12-20T14:21:33;6.00;;;3.97;;
44102;SDS011;29769;42.178;24.742;2023-12-20T14:24:18;12.98;;;4.93;;
44102;SDS011;29769;42.178;24.742;2023-12-20T14:27:03;4.05;;;3.67;;
44102;SDS011;29769;42.178;24.742;2023-12-20T14:32:34;6.25;;;2.92;;
44102;SDS011;29769;42.178;24.742;2023-12-20T14:35:21;7.55;;;4.07;;
44102;SDS011;29769;42.178;24.742;2023-12-20T14:38:07;5.15;;;3.55;;
44102;SDS011;29769;42.178;24.742;2023-12-20T14:40:53;4.07;;;3.67;;
44102;SDS011;29769;42.178;24.742;2023-12-20T14:43:38;4.85;;;3.78;;
44102;SDS011;29769;42.178;24.742;2023-12-20T14:46:23;5.97;;;3.60;;
44102;SDS011;29769;42.178;24.742;2023-12-20T14:49:08;16.02;;;7.07;;
44102;SDS011;29769;42.178;24.742;2023-12-20T14:54:37;6.57;;;3.35;;
44102;SDS011;29769;42.178;24.742;2023-12-20T14:57:22;10.00;;;5.38;;
44102;SDS011;29769;42.178;24.742;2023-12-20T15:02:52;4.55;;;3.45;;
44102;SDS011;29769;42.178;24.742;2023-12-20T15:05:38;6.15;;;4.10;;
44102;SDS011;29769;42.178;24.742;2023-12-20T15:08:23;3.38;;;3.15;;
44102;SDS011;29769;42.178;24.742;2023-12-20T15:11:10;3.08;;;2.78;;
44102;SDS011;29769;42.178;24.742;2023-12-20T15:13:55;4.10;;;3.70;;
44102;SDS011;29769;42.178;24.742;2023-12-20T15:16:40;8.15;;;3.63;;
44102;SDS011;29769;42.178;24.742;2023-12-20T15:19:26;4.88;;;3.75;;
44102;SDS011;29769;42.178;24.742;2023-12-20T15:22:11;6.03;;;2.67;;
44102;SDS011;29769;42.178;24.742;2023-12-20T15:24:56;14.05;;;5.03;;
44102;SDS011;29769;42.178;24.742;2023-12-20T15:27:41;11.32;;;4.30;;
44102;SDS011;29769;42.178;24.742;2023-12-20T15:30:26;4.78;;;3.83;;
44102;SDS011;29769;42.178;24.742;2023-12-20T15:33:11;8.98;;;6.07;;
44102;SDS011;29769;42.178;24.742;2023-12-20T15:35:56;6.00;;;5.18;;
44102;SDS011;29769;42.178;24.742;2023-12-20T15:38:41;9.73;;;4.80;;
44102;SDS011;29769;42.178;24.742;2023-12-20T15:41:26;10.95;;;4.65;;
44102;SDS011;29769;42.178;24.742;2023-12-20T15:44:12;8.15;;;5.05;;
44102;SDS011;29769;42.178;24.742;2023-12-20T15:46:57;11.57;;;5.13;;
44102;SDS011;29769;42.178;24.742;2023-12-20T15:49:42;13.70;;;7.55;;
44102;SDS011;29769;42.178;24.742;2023-12-20T15:52:27;4.22;;;3.92;;
44102;SDS011;29769;42.178;24.742;2023-12-20T15:55:12;4.72;;;3.40;;
44102;SDS011;29769;42.178;24.742;2023-12-20T15:57:57;5.38;;;4.78;;
44102;SDS011;29769;42.178;24.742;2023-12-20T16:00:42;9.30;;;6.85;;
44102;SDS011;29769;42.178;24.742;2023-12-20T16:03:27;12.18;;;5.47;;
44102;SDS011;29769;42.178;24.742;2023-12-20T16:06:12;8.95;;;5.47;;
44102;SDS011;29769;42.178;24.742;2023-12-20T16:08:57;8.45;;;4.78;;
44102;SDS011;29769;42.178;24.742;2023-12-20T16:11:42;5.25;;;4.75;;
44102;SDS011;29769;42.178;24.742;2023-12-20T16:14:29;4.68;;;3.53;;
44102;SDS011;29769;42.178;24.742;2023-12-20T16:17:15;17.55;;;5.47;;
44102;SDS011;29769;42.178;24.742;2023-12-20T16:20:01;6.18;;;5.50;;
44102;SDS011;29769;42.178;24.742;2023-12-20T16:22:48;2.88;;;2.22;;
44102;SDS011;29769;42.178;24.742;2023-12-20T16:25:33;5.15;;;4.65;;
44102;SDS011;29769;42.178;24.742;2023-12-20T16:28:22;13.70;;;4.75;;
44102;SDS011;29769;42.178;24.742;2023-12-20T16:33:51;4.97;;;3.63;;
44102;SDS011;29769;42.178;24.742;2023-12-20T16:36:47;5.53;;;3.55;;
44102;SDS011;29769;42.178;24.742;2023-12-20T16:39:36;7.90;;;2.97;;
44102;SDS011;29769;42.178;24.742;2023-12-20T16:42:21;3.05;;;1.63;;
44102;SDS011;29769;42.178;24.742;2023-12-20T16:45:07;4.07;;;3.33;;
44102;SDS011;29769;42.178;24.742;2023-12-20T16:47:51;4.15;;;3.72;;
44102;SDS011;29769;42.178;24.742;2023-12-20T16:50:37;3.35;;;3.10;;
44102;SDS011;29769;42.178;24.742;2023-12-20T16:53:22;7.03;;;5.28;;
44102;SDS011;29769;42.178;24.742;2023-12-20T16:56:07;3.97;;;3.72;;
44102;SDS011;29769;42.178;24.742;2023-12-20T16:58:52;6.78;;;3.05;;
44102;SDS011;29769;42.178;24.742;2023-12-20T17:01:37;7.78;;;4.38;;
44102;SDS011;29769;42.178;24.742;2023-12-20T17:04:22;5.25;;;4.78;;
44102;SDS011;29769;42.178;24.742;2023-12-20T17:07:07;14.02;;;5.82;;
44102;SDS011;29769;42.178;24.742;2023-12-20T17:09:52;12.30;;;4.80;;
44102;SDS011;29769;42.178;24.742;2023-12-20T17:12:37;11.98;;;5.82;;
44102;SDS011;29769;42.178;24.742;2023-12-20T17:15:22;10.10;;;5.20;;